sensor_id;sensor_type;location;lat;lon;timestamp;pressure;altitude;pressure_sealevel;temperature;humidity
41636;BME280;27623;51.966;4.602;2023-04-20T00:00:40;64248.41;;;11.44;39.45
41636;BME280;27623;51.966;4.602;2023-04-20T00:03:07;64238.81;;;11.38;39.35
41636;BME280;27623;51.966;4.602;2023-04-20T00:05:32;64226.72;;;11.48;39.39
41636;BME280;27623;51.966;4.602;2023-04-20T00:07:58;64189.84;;;11.30;39.71
41636;BME280;27623;51.966;4.602;2023-04-20T00:10:23;64245.13;;;11.48;39.20
41636;BME280;27623;51.966;4.602;2023-04-20T00:12:48;64231.16;;;11.38;39.19
41636;BME280;27623;51.966;4.602;2023-04-20T00:15:14;64197.28;;;11.34;40.14
41636;BME280;27623;51.966;4.602;2023-04-20T00:17:39;64195.19;;;11.18;40.61
41636;BME280;27623;51.966;4.602;2023-04-20T00:20:05;64202.47;;;11.20;40.63
41636;BME280;27623;51.966;4.602;2023-04-20T00:22:32;64200.69;;;11.09;41.25
41636;BME280;27623;51.966;4.602;2023-04-20T00:24:58;64183.22;;;11.07;40.75
41636;BME280;27623;51.966;4.602;2023-04-20T00:27:23;64209.31;;;11.31;40.04
41636;BME280;27623;51.966;4.602;2023-04-20T00:29:48;64187.38;;;11.16;39.63
41636;BME280;27623;51.966;4.602;2023-04-20T00:32:14;64198.13;;;11.16;38.92
41636;BME280;27623;51.966;4.602;2023-04-20T00:34:39;64215.25;;;11.44;38.80
41636;BME280;27623;51.966;4.602;2023-04-20T00:37:05;64189.00;;;11.17;39.67
41636;BME280;27623;51.966;4.602;2023-04-20T00:39:30;64203.75;;;11.17;39.77
41636;BME280;27623;51.966;4.602;2023-04-20T00:42:03;64203.00;;;11.21;39.83
41636;BME280;27623;51.966;4.602;2023-04-20T00:44:29;64212.03;;;11.34;39.42
41636;BME280;27623;51.966;4.602;2023-04-20T00:46:54;64215.41;;;11.16;40.40
41636;BME280;27623;51.966;4.602;2023-04-20T00:49:22;64190.31;;;11.07;40.84
41636;BME280;27623;51.966;4.602;2023-04-20T00:51:47;64188.91;;;11.00;41.13
41636;BME280;27623;51.966;4.602;2023-04-20T00:54:13;64185.38;;;11.16;40.99
41636;BME280;27623;51.966;4.602;2023-04-20T00:56:38;64203.25;;;11.09;41.17
41636;BME280;27623;51.966;4.602;2023-04-20T00:59:04;64200.53;;;11.07;40.94
41636;BME280;27623;51.966;4.602;2023-04-20T01:01:30;64166.78;;;10.82;41.79
41636;BME280;27623;51.966;4.602;2023-04-20T01:03:55;64124.63;;;10.69;42.47
41636;BME280;27623;51.966;4.602;2023-04-20T01:06:21;64167.53;;;10.78;42.68
41636;BME280;27623;51.966;4.602;2023-04-20T01:08:50;64135.22;;;10.60;43.20
41636;BME280;27623;51.966;4.602;2023-04-20T01:11:16;64147.31;;;10.81;42.74
41636;BME280;27623;51.966;4.602;2023-04-20T01:13:42;64138.09;;;10.72;43.01
41636;BME280;27623;51.966;4.602;2023-04-20T01:16:07;64091.44;;;10.45;44.49
41636;BME280;27623;51.966;4.602;2023-04-20T01:18:46;64099.88;;;10.34;44.40
41636;BME280;27623;51.966;4.602;2023-04-20T01:21:14;64068.78;;;10.33;45.27
41636;BME280;27623;51.966;4.602;2023-04-20T01:23:41;64080.59;;;10.35;44.97
41636;BME280;27623;51.966;4.602;2023-04-20T01:26:07;64099.00;;;10.28;45.31
41636;BME280;27623;51.966;4.602;2023-04-20T01:28:33;64080.88;;;10.16;44.98
41636;BME280;27623;51.966;4.602;2023-04-20T01:30:59;64124.44;;;10.36;44.90
41636;BME280;27623;51.966;4.602;2023-04-20T01:33:24;64062.31;;;10.13;45.46
41636;BME280;27623;51.966;4.602;2023-04-20T01:35:53;64068.44;;;10.28;44.98
41636;BME280;27623;51.966;4.602;2023-04-20T01:38:19;64136.22;;;10.44;44.73
41636;BME280;27623;51.966;4.602;2023-04-20T01:40:45;64107.88;;;10.39;45.05
41636;BME280;27623;51.966;4.602;2023-04-20T01:43:10;64078.19;;;10.07;45.86
41636;BME280;27623;51.966;4.602;2023-04-20T01:45:36;64059.28;;;10.06;45.88
41636;BME280;27623;51.966;4.602;2023-04-20T01:48:01;64045.38;;;9.88;46.65
41636;BME280;27623;51.966;4.602;2023-04-20T01:50:27;64057.81;;;10.07;47.13
41636;BME280;27623;51.966;4.602;2023-04-20T01:52:52;64081.97;;;10.10;47.26
41636;BME280;27623;51.966;4.602;2023-04-20T01:55:20;64048.75;;;10.00;47.59
41636;BME280;27623;51.966;4.602;2023-04-20T01:57:47;64043.63;;;10.08;47.20
41636;BME280;27623;51.966;4.602;2023-04-20T02:00:14;64103.81;;;10.09;47.37
41636;BME280;27623;51.966;4.602;2023-04-20T02:02:40;64074.44;;;9.89;48.22
41636;BME280;27623;51.966;4.602;2023-04-20T02:05:05;64044.13;;;9.77;48.15
41636;BME280;27623;51.966;4.602;2023-04-20T02:07:31;64046.34;;;9.72;48.72
41636;BME280;27623;51.966;4.602;2023-04-20T02:09:56;64037.59;;;9.78;48.71
41636;BME280;27623;51.966;4.602;2023-04-20T02:12:21;64002.59;;;9.64;49.24
41636;BME280;27623;51.966;4.602;2023-04-20T02:14:47;63982.09;;;9.55;49.56
41636;BME280;27623;51.966;4.602;2023-04-20T02:17:14;64009.56;;;9.47;50.05
41636;BME280;27623;51.966;4.602;2023-04-20T02:19:40;63982.69;;;9.48;50.38
41636;BME280;27623;51.966;4.602;2023-04-20T02:22:05;63985.06;;;9.39;50.78
41636;BME280;27623;51.966;4.602;2023-04-20T02:24:31;64003.16;;;9.58;50.23
41636;BME280;27623;51.966;4.602;2023-04-20T02:26:56;63955.16;;;9.32;51.12
41636;BME280;27623;51.966;4.602;2023-04-20T02:29:23;64019.59;;;9.38;50.98
41636;BME280;27623;51.966;4.602;2023-04-20T02:31:48;63968.59;;;9.35;50.90
41636;BME280;27623;51.966;4.602;2023-04-20T02:34:14;63987.13;;;9.31;51.43
41636;BME280;27623;51.966;4.602;2023-04-20T02:36:40;63983.22;;;9.11;52.05
41636;BME280;27623;51.966;4.602;2023-04-20T02:39:05;63980.38;;;9.37;51.73
41636;BME280;27623;51.966;4.602;2023-04-20T02:41:34;63977.16;;;9.26;51.92
41636;BME280;27623;51.966;4.602;2023-04-20T02:43:59;63981.78;;;9.43;52.19
41636;BME280;27623;51.966;4.602;2023-04-20T02:46:25;63961.38;;;9.19;53.12
41636;BME280;27623;51.966;4.602;2023-04-20T02:48:50;63926.59;;;9.08;53.89
41636;BME280;27623;51.966;4.602;2023-04-20T02:51:15;63948.47;;;9.23;53.97
41636;BME280;27623;51.966;4.602;2023-04-20T02:53:41;63960.47;;;9.20;54.97
41636;BME280;27623;51.966;4.602;2023-04-20T02:56:06;63952.75;;;9.04;55.30
41636;BME280;27623;51.966;4.602;2023-04-20T02:58:31;63947.94;;;9.23;55.84
41636;BME280;27623;51.966;4.602;2023-04-20T03:01:00;63991.28;;;9.33;55.65
41636;BME280;27623;51.966;4.602;2023-04-20T03:03:27;63987.06;;;9.38;56.12
41636;BME280;27623;51.966;4.602;2023-04-20T03:05:53;63967.91;;;9.25;56.81
41636;BME280;27623;51.966;4.602;2023-04-20T03:08:19;63964.84;;;9.17;57.95
41636;BME280;27623;51.966;4.602;2023-04-20T03:10:44;63967.81;;;9.39;58.05
41636;BME280;27623;51.966;4.602;2023-04-20T03:13:09;63947.94;;;9.23;59.31
41636;BME280;27623;51.966;4.602;2023-04-20T03:15:35;63969.88;;;9.32;59.65
41636;BME280;27623;51.966;4.602;2023-04-20T03:18:00;63966.75;;;9.38;60.29
41636;BME280;27623;51.966;4.602;2023-04-20T03:20:28;63988.06;;;9.60;60.36
41636;BME280;27623;51.966;4.602;2023-04-20T03:22:54;64025.84;;;9.62;60.42
41636;BME280;27623;51.966;4.602;2023-04-20T03:25:20;64032.75;;;9.59;60.92
41636;BME280;27623;51.966;4.602;2023-04-20T03:27:45;64020.81;;;9.55;61.33
41636;BME280;27623;51.966;4.602;2023-04-20T03:30:11;63997.59;;;9.43;61.83
41636;BME280;27623;51.966;4.602;2023-04-20T03:32:37;63994.81;;;9.55;61.92
41636;BME280;27623;51.966;4.602;2023-04-20T03:35:04;63988.47;;;9.51;62.44
41636;BME280;27623;51.966;4.602;2023-04-20T03:37:29;64010.84;;;9.51;62.53
41636;BME280;27623;51.966;4.602;2023-04-20T03:39:55;63971.00;;;9.56;62.92
41636;BME280;27623;51.966;4.602;2023-04-20T03:42:20;64011.84;;;9.66;62.85
41636;BME280;27623;51.966;4.602;2023-04-20T03:44:46;64018.38;;;9.65;63.65
41636;BME280;27623;51.966;4.602;2023-04-20T03:47:11;64018.56;;;9.68;63.56
41636;BME280;27623;51.966;4.602;2023-04-20T03:49:37;64025.44;;;9.72;64.09
41636;BME280;27623;51.966;4.602;2023-04-20T03:52:02;64056.16;;;9.74;63.87
41636;BME280;27623;51.966;4.602;2023-04-20T03:54:28;64008.31;;;9.82;64.11
41636;BME280;27623;51.966;4.602;2023-04-20T03:56:53;64025.94;;;9.79;64.30
41636;BME280;27623;51.966;4.602;2023-04-20T03:59:18;64004.72;;;9.74;64.56
41636;BME280;27623;51.966;4.602;2023-04-20T04:01:44;64053.88;;;9.93;64.30
41636;BME280;27623;51.966;4.602;2023-04-20T04:04:13;64045.13;;;9.99;63.68
41636;BME280;27623;51.966;4.602;2023-04-20T04:06:38;64040.06;;;9.92;64.01
41636;BME280;27623;51.966;4.602;2023-04-20T04:09:04;64045.34;;;9.95;64.33
41636;BME280;27623;51.966;4.602;2023-04-20T04:11:30;64062.94;;;9.99;64.45
41636;BME280;27623;51.966;4.602;2023-04-20T04:13:56;64064.34;;;10.13;64.19
41636;BME280;27623;51.966;4.602;2023-04-20T04:16:22;64045.88;;;9.95;64.90
41636;BME280;27623;51.966;4.602;2023-04-20T04:18:50;64061.28;;;10.05;64.89
41636;BME280;27623;51.966;4.602;2023-04-20T04:21:15;64053.59;;;10.12;65.33
41636;BME280;27623;51.966;4.602;2023-04-20T04:23:41;64074.66;;;10.22;64.95
41636;BME280;27623;51.966;4.602;2023-04-20T04:26:07;64064.13;;;10.17;64.78
41636;BME280;27623;51.966;4.602;2023-04-20T04:28:33;64118.00;;;10.08;65.46
41636;BME280;27623;51.966;4.602;2023-04-20T04:30:58;64054.38;;;10.01;66.20
41636;BME280;27623;51.966;4.602;2023-04-20T04:33:26;64074.72;;;10.08;66.17
41636;BME280;27623;51.966;4.602;2023-04-20T04:35:51;64080.19;;;10.06;65.85
41636;BME280;27623;51.966;4.602;2023-04-20T04:38:17;64046.91;;;10.04;66.56
41636;BME280;27623;51.966;4.602;2023-04-20T04:40:43;64051.13;;;9.98;66.70
41636;BME280;27623;51.966;4.602;2023-04-20T04:43:10;64058.22;;;9.97;66.78
41636;BME280;27623;51.966;4.602;2023-04-20T04:45:37;64105.94;;;10.25;66.04
41636;BME280;27623;51.966;4.602;2023-04-20T04:48:06;64093.28;;;10.04;66.83
41636;BME280;27623;51.966;4.602;2023-04-20T04:50:33;64085.19;;;10.27;66.05
41636;BME280;27623;51.966;4.602;2023-04-20T04:53:01;64109.22;;;10.21;66.01
41636;BME280;27623;51.966;4.602;2023-04-20T04:55:27;64075.97;;;10.12;66.83
41636;BME280;27623;51.966;4.602;2023-04-20T04:57:52;64089.22;;;10.19;66.23
41636;BME280;27623;51.966;4.602;2023-04-20T05:00:17;64072.31;;;10.18;66.78
41636;BME280;27623;51.966;4.602;2023-04-20T05:02:43;64061.03;;;10.17;66.86
41636;BME280;27623;51.966;4.602;2023-04-20T05:05:08;64083.03;;;10.18;66.84
41636;BME280;27623;51.966;4.602;2023-04-20T05:07:36;64089.72;;;10.27;67.18
41636;BME280;27623;51.966;4.602;2023-04-20T05:10:05;64107.22;;;10.22;67.44
41636;BME280;27623;51.966;4.602;2023-04-20T05:12:31;64089.72;;;10.27;67.44
41636;BME280;27623;51.966;4.602;2023-04-20T05:14:56;64099.94;;;10.20;68.20
41636;BME280;27623;51.966;4.602;2023-04-20T05:17:22;64105.19;;;10.29;67.89
41636;BME280;27623;51.966;4.602;2023-04-20T05:19:47;64103.69;;;10.38;67.92
41636;BME280;27623;51.966;4.602;2023-04-20T05:22:13;64098.47;;;10.28;68.30
41636;BME280;27623;51.966;4.602;2023-04-20T05:24:38;64115.34;;;10.37;68.10
41636;BME280;27623;51.966;4.602;2023-04-20T05:27:06;64093.78;;;10.19;69.38
41636;BME280;27623;51.966;4.602;2023-04-20T05:29:31;64082.84;;;10.23;69.33
41636;BME280;27623;51.966;4.602;2023-04-20T05:31:57;64132.63;;;10.36;69.31
41636;BME280;27623;51.966;4.602;2023-04-20T05:34:22;64105.19;;;10.29;69.69
41636;BME280;27623;51.966;4.602;2023-04-20T05:36:47;64151.66;;;10.47;69.50
41636;BME280;27623;51.966;4.602;2023-04-20T05:39:13;64095.13;;;10.39;69.75
41636;BME280;27623;51.966;4.602;2023-04-20T05:41:38;64098.25;;;10.32;70.09
41636;BME280;27623;51.966;4.602;2023-04-20T05:44:04;64122.53;;;10.53;69.83
41636;BME280;27623;51.966;4.602;2023-04-20T05:46:29;64111.28;;;10.45;69.87
41636;BME280;27623;51.966;4.602;2023-04-20T05:48:55;64098.59;;;10.38;70.32
41636;BME280;27623;51.966;4.602;2023-04-20T05:51:20;64116.75;;;10.43;70.58
41636;BME280;27623;51.966;4.602;2023-04-20T05:53:46;64121.66;;;10.47;70.49
41636;BME280;27623;51.966;4.602;2023-04-20T05:56:12;64132.91;;;10.55;70.08
41636;BME280;27623;51.966;4.602;2023-04-20T05:58:39;64153.28;;;10.55;69.66
41636;BME280;27623;51.966;4.602;2023-04-20T06:01:05;64132.56;;;10.50;70.45
41636;BME280;27623;51.966;4.602;2023-04-20T06:03:30;64120.53;;;10.53;69.79
41636;BME280;27623;51.966;4.602;2023-04-20T06:05:55;64163.47;;;10.55;69.02
41636;BME280;27623;51.966;4.602;2023-04-20T06:08:21;64125.66;;;10.46;67.53
41636;BME280;27623;51.966;4.602;2023-04-20T06:10:46;64125.47;;;10.51;64.64
41636;BME280;27623;51.966;4.602;2023-04-20T06:13:12;64133.28;;;10.46;63.24
41636;BME280;27623;51.966;4.602;2023-04-20T06:15:39;64115.88;;;10.37;61.68
41636;BME280;27623;51.966;4.602;2023-04-20T06:18:04;64130.25;;;10.39;60.75
41636;BME280;27623;51.966;4.602;2023-04-20T06:20:30;64119.72;;;10.33;60.65
41636;BME280;27623;51.966;4.602;2023-04-20T06:22:55;64112.53;;;10.48;60.51
41636;BME280;27623;51.966;4.602;2023-04-20T06:25:21;64090.91;;;10.45;60.49
41636;BME280;27623;51.966;4.602;2023-04-20T06:27:46;64126.34;;;10.56;60.21
41636;BME280;27623;51.966;4.602;2023-04-20T06:30:12;64130.28;;;10.70;59.87
41636;BME280;27623;51.966;4.602;2023-04-20T06:32:37;64148.19;;;10.55;59.03
41636;BME280;27623;51.966;4.602;2023-04-20T06:35:04;64147.38;;;10.66;58.08
41636;BME280;27623;51.966;4.602;2023-04-20T06:37:30;64155.00;;;10.74;57.92
41636;BME280;27623;51.966;4.602;2023-04-20T06:39:57;64171.41;;;10.67;57.91
41636;BME280;27623;51.966;4.602;2023-04-20T06:42:23;64156.16;;;10.60;58.69
41636;BME280;27623;51.966;4.602;2023-04-20T06:44:48;64126.66;;;10.61;59.28
41636;BME280;27623;51.966;4.602;2023-04-20T06:47:14;64127.22;;;10.62;58.96
41636;BME280;27623;51.966;4.602;2023-04-20T06:49:39;64144.66;;;10.64;58.27
41636;BME280;27623;51.966;4.602;2023-04-20T06:52:05;64141.56;;;10.63;58.51
41636;BME280;27623;51.966;4.602;2023-04-20T06:54:31;64123.75;;;10.63;58.66
41636;BME280;27623;51.966;4.602;2023-04-20T06:56:57;64081.94;;;10.55;58.95
41636;BME280;27623;51.966;4.602;2023-04-20T06:59:22;64121.97;;;10.59;60.31
41636;BME280;27623;51.966;4.602;2023-04-20T07:01:50;64166.47;;;10.77;59.66
41636;BME280;27623;51.966;4.602;2023-04-20T07:04:18;64161.72;;;10.75;59.40
41636;BME280;27623;51.966;4.602;2023-04-20T07:06:46;64131.00;;;10.65;60.22
41636;BME280;27623;51.966;4.602;2023-04-20T07:09:13;64146.81;;;10.73;60.56
41636;BME280;27623;51.966;4.602;2023-04-20T07:11:38;64140.66;;;10.65;61.83
41636;BME280;27623;51.966;4.602;2023-04-20T07:14:04;64152.13;;;10.61;61.80
41636;BME280;27623;51.966;4.602;2023-04-20T07:16:29;64096.31;;;10.57;63.30
41636;BME280;27623;51.966;4.602;2023-04-20T07:18:54;64163.59;;;10.65;63.46
41636;BME280;27623;51.966;4.602;2023-04-20T07:21:20;64151.09;;;10.53;64.51
41636;BME280;27623;51.966;4.602;2023-04-20T07:23:45;64160.88;;;10.62;64.22
41636;BME280;27623;51.966;4.602;2023-04-20T07:26:13;64131.47;;;10.49;65.18
41636;BME280;27623;51.966;4.602;2023-04-20T07:28:39;64104.19;;;10.45;65.55
41636;BME280;27623;51.966;4.602;2023-04-20T07:31:05;64124.56;;;10.45;65.98
41636;BME280;27623;51.966;4.602;2023-04-20T07:33:30;64116.97;;;10.38;66.19
41636;BME280;27623;51.966;4.602;2023-04-20T07:35:56;64150.19;;;10.55;66.51
41636;BME280;27623;51.966;4.602;2023-04-20T07:38:21;64162.72;;;10.59;66.68
41636;BME280;27623;51.966;4.602;2023-04-20T07:40:46;64173.13;;;10.55;68.76
41636;BME280;27623;51.966;4.602;2023-04-20T07:43:12;64120.72;;;10.49;72.26
41636;BME280;27623;51.966;4.602;2023-04-20T07:45:40;64110.72;;;10.51;74.12
41636;BME280;27623;51.966;4.602;2023-04-20T07:48:06;64105.16;;;10.37;75.29
41636;BME280;27623;51.966;4.602;2023-04-20T07:50:33;64067.03;;;10.22;77.60
41636;BME280;27623;51.966;4.602;2023-04-20T07:52:58;64127.00;;;10.28;78.28
41636;BME280;27623;51.966;4.602;2023-04-20T07:55:24;64094.66;;;10.24;77.24
41636;BME280;27623;51.966;4.602;2023-04-20T07:57:49;64102.31;;;10.17;79.06
41636;BME280;27623;51.966;4.602;2023-04-20T08:00:15;64100.50;;;10.20;79.70
41636;BME280;27623;51.966;4.602;2023-04-20T08:02:44;64080.50;;;10.18;78.77
41636;BME280;27623;51.966;4.602;2023-04-20T08:05:09;64076.78;;;9.93;80.17
41636;BME280;27623;51.966;4.602;2023-04-20T08:07:35;64047.72;;;9.92;81.13
41636;BME280;27623;51.966;4.602;2023-04-20T08:10:03;64009.09;;;9.71;81.82
41636;BME280;27623;51.966;4.602;2023-04-20T08:12:29;64053.34;;;9.93;82.20
41636;BME280;27623;51.966;4.602;2023-04-20T08:14:54;64070.00;;;10.06;82.01
41636;BME280;27623;51.966;4.602;2023-04-20T08:17:24;64050.91;;;10.03;81.64
41636;BME280;27623;51.966;4.602;2023-04-20T08:19:50;64049.50;;;9.96;82.28
41636;BME280;27623;51.966;4.602;2023-04-20T08:22:15;64087.13;;;9.96;83.28
41636;BME280;27623;51.966;4.602;2023-04-20T08:24:40;64065.88;;;9.97;83.91
41636;BME280;27623;51.966;4.602;2023-04-20T08:27:07;64041.56;;;9.84;85.77
41636;BME280;27623;51.966;4.602;2023-04-20T08:29:33;64043.09;;;10.07;85.25
41636;BME280;27623;51.966;4.602;2023-04-20T08:31:58;64076.16;;;10.07;85.35
41636;BME280;27623;51.966;4.602;2023-04-20T08:34:23;64054.97;;;9.94;87.38
41636;BME280;27623;51.966;4.602;2023-04-20T08:36:49;64040.81;;;9.88;87.73
41636;BME280;27623;51.966;4.602;2023-04-20T08:39:19;64045.72;;;9.93;87.66
41636;BME280;27623;51.966;4.602;2023-04-20T08:41:45;64063.66;;;10.03;86.15
41636;BME280;27623;51.966;4.602;2023-04-20T08:44:12;64084.34;;;10.08;85.06
41636;BME280;27623;51.966;4.602;2023-04-20T08:46:43;64083.16;;;9.90;85.92
41636;BME280;27623;51.966;4.602;2023-04-20T08:49:11;64085.28;;;9.99;86.03
41636;BME280;27623;51.966;4.602;2023-04-20T08:51:38;64060.19;;;10.04;87.06
41636;BME280;27623;51.966;4.602;2023-04-20T08:54:04;64078.50;;;10.19;87.06
41636;BME280;27623;51.966;4.602;2023-04-20T08:56:36;64068.00;;;10.07;88.29
41636;BME280;27623;51.966;4.602;2023-04-20T08:59:04;64116.69;;;10.19;87.32
41636;BME280;27623;51.966;4.602;2023-04-20T09:01:31;64050.00;;;10.04;86.92
41636;BME280;27623;51.966;4.602;2023-04-20T09:03:58;64088.72;;;10.05;88.11
41636;BME280;27623;51.966;4.602;2023-04-20T09:06:24;64069.41;;;10.20;87.20
41636;BME280;27623;51.966;4.602;2023-04-20T09:08:51;64125.81;;;10.11;88.32
41636;BME280;27623;51.966;4.602;2023-04-20T09:11:25;64089.03;;;10.24;87.89
41636;BME280;27623;51.966;4.602;2023-04-20T09:14:04;64086.31;;;10.21;87.70
41636;BME280;27623;51.966;4.602;2023-04-20T09:16:50;64101.59;;;10.14;87.01
41636;BME280;27623;51.966;4.602;2023-04-20T09:19:23;64136.66;;;10.28;85.94
41636;BME280;27623;51.966;4.602;2023-04-20T09:21:50;64084.84;;;10.22;86.20
41636;BME280;27623;51.966;4.602;2023-04-20T09:24:19;64078.88;;;10.17;85.95
41636;BME280;27623;51.966;4.602;2023-04-20T09:26:45;64119.41;;;10.21;87.03
41636;BME280;27623;51.966;4.602;2023-04-20T09:29:20;64092.88;;;10.13;88.21
41636;BME280;27623;51.966;4.602;2023-04-20T09:31:48;64127.56;;;10.29;87.43
41636;BME280;27623;51.966;4.602;2023-04-20T09:34:18;64085.59;;;10.18;87.88
41636;BME280;27623;51.966;4.602;2023-04-20T09:36:49;64103.03;;;10.20;87.55
41636;BME280;27623;51.966;4.602;2023-04-20T09:39:22;64071.78;;;10.10;86.29
41636;BME280;27623;51.966;4.602;2023-04-20T09:41:50;64126.38;;;10.04;86.91
41636;BME280;27623;51.966;4.602;2023-04-20T09:44:18;64110.31;;;10.22;87.39
41636;BME280;27623;51.966;4.602;2023-04-20T09:46:45;64084.34;;;10.08;87.54
41636;BME280;27623;51.966;4.602;2023-04-20T09:49:12;64096.28;;;10.26;87.04
41636;BME280;27623;51.966;4.602;2023-04-20T09:51:39;64124.28;;;10.26;85.83
41636;BME280;27623;51.966;4.602;2023-04-20T09:54:09;64096.81;;;10.26;86.47
41636;BME280;27623;51.966;4.602;2023-04-20T09:56:37;64143.13;;;10.48;85.83
41636;BME280;27623;51.966;4.602;2023-04-20T09:59:03;64182.72;;;10.61;85.76
41636;BME280;27623;51.966;4.602;2023-04-20T10:01:32;64157.03;;;10.66;84.45
41636;BME280;27623;51.966;4.602;2023-04-20T10:04:01;64146.47;;;10.68;85.06
41636;BME280;27623;51.966;4.602;2023-04-20T10:06:28;64151.72;;;10.78;82.10
41636;BME280;27623;51.966;4.602;2023-04-20T10:08:55;64165.88;;;10.84;82.85
41636;BME280;27623;51.966;4.602;2023-04-20T10:11:25;64191.31;;;10.91;83.00
41636;BME280;27623;51.966;4.602;2023-04-20T10:13:51;64178.75;;;10.93;81.39
41636;BME280;27623;51.966;4.602;2023-04-20T10:16:20;64166.00;;;10.93;81.21
41636;BME280;27623;51.966;4.602;2023-04-20T10:19:15;64191.66;;;10.96;83.65
41636;BME280;27623;51.966;4.602;2023-04-20T10:21:48;64207.19;;;11.22;82.81
41636;BME280;27623;51.966;4.602;2023-04-20T10:24:14;64234.16;;;11.21;83.04
41636;BME280;27623;51.966;4.602;2023-04-20T10:26:42;64266.53;;;11.32;81.12
41636;BME280;27623;51.966;4.602;2023-04-20T10:29:09;64228.81;;;11.33;80.64
41636;BME280;27623;51.966;4.602;2023-04-20T10:31:36;64252.78;;;11.48;81.00
41636;BME280;27623;51.966;4.602;2023-04-20T10:34:02;64243.00;;;11.39;81.23
41636;BME280;27623;51.966;4.602;2023-04-20T10:36:32;64242.66;;;11.65;79.32
41636;BME280;27623;51.966;4.602;2023-04-20T10:39:21;64263.00;;;11.79;81.00
41636;BME280;27623;51.966;4.602;2023-04-20T10:41:55;64325.66;;;11.92;79.76
41636;BME280;27623;51.966;4.602;2023-04-20T10:44:26;64331.66;;;11.98;79.15
41636;BME280;27623;51.966;4.602;2023-04-20T10:46:54;64326.03;;;11.90;77.40
41636;BME280;27623;51.966;4.602;2023-04-20T10:49:25;64304.84;;;12.01;78.07
41636;BME280;27623;51.966;4.602;2023-04-20T10:51:51;64310.97;;;12.10;75.41
41636;BME280;27623;51.966;4.602;2023-04-20T10:54:18;64372.88;;;12.34;75.94
41636;BME280;27623;51.966;4.602;2023-04-20T10:59:16;64318.78;;;12.19;74.03
41636;BME280;27623;51.966;4.602;2023-04-20T11:01:43;64339.03;;;12.17;73.60
41636;BME280;27623;51.966;4.602;2023-04-20T11:04:10;64347.16;;;12.00;74.18
41636;BME280;27623;51.966;4.602;2023-04-20T11:06:37;64287.94;;;11.86;75.08
41636;BME280;27623;51.966;4.602;2023-04-20T11:09:14;64276.31;;;11.80;75.98
41636;BME280;27623;51.966;4.602;2023-04-20T11:11:40;64271.22;;;11.73;74.98
41636;BME280;27623;51.966;4.602;2023-04-20T11:14:07;64285.84;;;11.69;73.55
41636;BME280;27623;51.966;4.602;2023-04-20T11:16:36;64256.00;;;11.58;73.55
41636;BME280;27623;51.966;4.602;2023-04-20T11:19:02;64262.22;;;11.52;75.47
41636;BME280;27623;51.966;4.602;2023-04-20T11:21:38;64268.25;;;11.51;76.80
41636;BME280;27623;51.966;4.602;2023-04-20T11:24:05;64245.28;;;11.51;76.53
41636;BME280;27623;51.966;4.602;2023-04-20T11:26:41;64289.69;;;11.66;76.40
41636;BME280;27623;51.966;4.602;2023-04-20T11:29:07;64329.69;;;11.91;75.06
41636;BME280;27623;51.966;4.602;2023-04-20T11:31:33;64298.03;;;12.07;74.56
41636;BME280;27623;51.966;4.602;2023-04-20T11:33:58;64381.28;;;12.30;74.69
41636;BME280;27623;51.966;4.602;2023-04-20T11:36:25;64347.69;;;12.32;74.49
41636;BME280;27623;51.966;4.602;2023-04-20T11:38:53;64349.97;;;12.20;73.41
41636;BME280;27623;51.966;4.602;2023-04-20T11:41:18;64364.19;;;12.50;72.93
41636;BME280;27623;51.966;4.602;2023-04-20T11:43:44;64452.97;;;13.08;73.73
41636;BME280;27623;51.966;4.602;2023-04-20T11:48:39;64490.00;;;13.50;69.77
41636;BME280;27623;51.966;4.602;2023-04-20T11:51:05;64524.63;;;13.70;70.72
41636;BME280;27623;51.966;4.602;2023-04-20T11:53:30;64507.28;;;13.64;67.54
41636;BME280;27623;51.966;4.602;2023-04-20T11:55:56;64491.94;;;13.33;65.70
41636;BME280;27623;51.966;4.602;2023-04-20T11:58:21;64490.22;;;13.46;67.96
41636;BME280;27623;51.966;4.602;2023-04-20T12:00:47;64443.75;;;13.24;66.99
41636;BME280;27623;51.966;4.602;2023-04-20T12:03:12;64481.13;;;13.63;67.97
41636;BME280;27623;51.966;4.602;2023-04-20T12:05:37;64509.84;;;13.64;66.54
41636;BME280;27623;51.966;4.602;2023-04-20T12:08:03;64499.09;;;13.56;66.94
41636;BME280;27623;51.966;4.602;2023-04-20T12:10:28;64491.53;;;13.42;66.86
41636;BME280;27623;51.966;4.602;2023-04-20T12:12:54;64457.44;;;13.29;65.68
41636;BME280;27623;51.966;4.602;2023-04-20T12:15:20;64503.69;;;13.25;64.59
41636;BME280;27623;51.966;4.602;2023-04-20T12:17:46;64469.88;;;13.24;66.26
41636;BME280;27623;51.966;4.602;2023-04-20T12:20:12;64454.94;;;13.15;65.62
41636;BME280;27623;51.966;4.602;2023-04-20T12:22:37;64487.06;;;13.28;63.65
41636;BME280;27623;51.966;4.602;2023-04-20T12:25:04;64456.00;;;13.23;64.73
41636;BME280;27623;51.966;4.602;2023-04-20T12:27:29;64479.41;;;13.21;63.61
41636;BME280;27623;51.966;4.602;2023-04-20T12:29:55;64507.91;;;13.26;62.01
41636;BME280;27623;51.966;4.602;2023-04-20T12:32:22;64510.09;;;13.28;61.40
41636;BME280;27623;51.966;4.602;2023-04-20T12:34:47;64501.13;;;13.56;60.85
41636;BME280;27623;51.966;4.602;2023-04-20T12:37:13;64593.34;;;14.10;60.77
41636;BME280;27623;51.966;4.602;2023-04-20T12:39:39;64650.34;;;14.83;59.28
41636;BME280;27623;51.966;4.602;2023-04-20T12:42:04;64705.72;;;15.05;57.07
41636;BME280;27623;51.966;4.602;2023-04-20T12:44:32;64683.06;;;15.20;57.68
41636;BME280;27623;51.966;4.602;2023-04-20T12:46:58;64651.41;;;14.91;52.42
41636;BME280;27623;51.966;4.602;2023-04-20T12:49:25;64674.50;;;14.91;55.93
41636;BME280;27623;51.966;4.602;2023-04-20T12:51:51;64649.09;;;14.79;53.61
41636;BME280;27623;51.966;4.602;2023-04-20T12:54:16;64618.22;;;14.38;55.92
41636;BME280;27623;51.966;4.602;2023-04-20T12:56:41;64571.59;;;14.31;56.37
41636;BME280;27623;51.966;4.602;2023-04-20T12:59:10;64556.81;;;14.00;56.63
41636;BME280;27623;51.966;4.602;2023-04-20T13:01:35;64539.25;;;13.98;59.59
41636;BME280;27623;51.966;4.602;2023-04-20T13:04:01;64508.59;;;13.60;58.32